Time;durP1;ratioP1;P1;durP2;ratioP2;P2;SDS_P1;SDS_P2;PMS_P1;PMS_P2;Temp;Humidity;BMP_temperature;BMP_pressure;BME280_temperature;BME280_humidity;BME280_pressure;Samples;Min_cycle;Max_cycle;Signal;HPM_P1;HPM_P2
2023/12/24 06:00:14;;;;;;;1.70;0.90;;;;;;;;;;1740341;28;20617;-76
2023/12/24 06:01:05;;;;;;;1.52;0.90;;;;;;;;;;1739226;28;20211;-75
2023/12/24 06:01:57;;;;;;;2.45;0.80;;;;;;;;;;1740064;28;20195;-76
2023/12/24 06:02:49;;;;;;;1.00;0.90;;;;;;;;;;1739998;28;20199;-76
2023/12/24 06:03:40;;;;;;;1.65;0.90;;;;;;;;;;1739957;28;20284;-76
2023/12/24 06:04:32;;;;;;;1.00;0.88;;;;;;;;;;1740004;28;20652;-75
2023/12/24 06:05:23;;;;;;;1.75;1.08;;;;;;;;;;1740123;28;20211;-75
2023/12/24 06:06:15;;;;;;;2.75;1.00;;;;;;;;;;1740127;28;20191;-75
2023/12/24 06:07:06;;;;;;;1.40;0.88;;;;;;;;;;1740044;28;20196;-75
2023/12/24 06:07:58;;;;;;;0.80;0.75;;;;;;;;;;1739755;28;20191;-75
2023/12/24 06:08:50;;;;;;;1.15;0.80;;;;;;;;;;1741053;28;20678;-76
2023/12/24 06:09:41;;;;;;;1.20;0.80;;;;;;;;;;1739117;28;20203;-76
2023/12/24 06:10:34;;;;;;;2.78;0.95;;;;;;;;;;1740102;28;20575;-76
2023/12/24 06:11:25;;;;;;;2.17;0.70;;;;;;;;;;1739956;28;20235;-76
2023/12/24 06:12:17;;;;;;;1.23;0.80;;;;;;;;;;1740248;28;20207;-76
2023/12/24 06:13:08;;;;;;;0.98;0.88;;;;;;;;;;1740423;28;20659;-76
2023/12/24 06:13:59;;;;;;;1.10;0.80;;;;;;;;;;1741553;28;20731;-76
2023/12/24 06:14:52;;;;;;;1.00;0.80;;;;;;;;;;1740707;28;20679;-76
2023/12/24 06:15:44;;;;;;;0.80;0.70;;;;;;;;;;1741577;28;20199;-76
2023/12/24 06:16:36;;;;;;;0.90;0.80;;;;;;;;;;1741338;28;20215;-75
2023/12/24 06:17:27;;;;;;;1.40;1.00;;;;;;;;;;1740536;28;20671;-76
2023/12/24 06:18:19;;;;;;;0.80;0.73;;;;;;;;;;1740993;28;20278;-76
2023/12/24 06:19:11;;;;;;;1.42;0.75;;;;;;;;;;1741469;28;20578;-76
2023/12/24 06:20:04;;;;;;;0.90;0.70;;;;;;;;;;1741528;28;20203;-75
2023/12/24 06:20:56;;;;;;;2.33;0.70;;;;;;;;;;1741880;28;20287;-76
2023/12/24 06:21:47;;;;;;;1.00;0.80;;;;;;;;;;1741335;28;20206;-76
2023/12/24 06:22:38;;;;;;;1.30;0.80;;;;;;;;;;1741600;28;20681;-76
2023/12/24 06:23:31;;;;;;;1.05;0.80;;;;;;;;;;1741459;28;20195;-76
2023/12/24 06:24:24;;;;;;;1.95;0.80;;;;;;;;;;1741527;28;20199;-76
2023/12/24 06:25:18;;;;;;;1.00;0.80;;;;;;;;;;1741471;28;20544;-76
2023/12/24 06:26:09;;;;;;;1.85;0.70;;;;;;;;;;1741295;28;20206;-76
2023/12/24 06:27:01;;;;;;;0.90;0.70;;;;;;;;;;1741571;28;20565;-76
2023/12/24 06:27:52;;;;;;;1.30;0.70;;;;;;;;;;1740990;28;20199;-76
2023/12/24 06:28:44;;;;;;;3.95;0.75;;;;;;;;;;1741514;28;20571;-76
2023/12/24 06:29:36;;;;;;;0.80;0.65;;;;;;;;;;1740641;28;20199;-76
2023/12/24 06:30:27;;;;;;;1.13;0.70;;;;;;;;;;1738750;28;20233;-76
2023/12/24 06:31:24;;;;;;;0.70;0.60;;;;;;;;;;1741692;28;20205;-76
2023/12/24 06:32:15;;;;;;;1.00;0.80;;;;;;;;;;1741992;28;20211;-76
2023/12/24 06:33:07;;;;;;;0.90;0.80;;;;;;;;;;1742094;28;20195;-77
2023/12/24 06:33:59;;;;;;;2.22;0.82;;;;;;;;;;1743100;28;20265;-76
2023/12/24 06:34:51;;;;;;;1.10;1.00;;;;;;;;;;1741986;28;20585;-76
2023/12/24 06:35:42;;;;;;;2.47;0.70;;;;;;;;;;1741947;28;20207;-76
2023/12/24 06:36:34;;;;;;;0.95;0.75;;;;;;;;;;1742074;28;20281;-76
2023/12/24 06:37:25;;;;;;;0.90;0.75;;;;;;;;;;1741919;28;20199;-76
2023/12/24 06:38:17;;;;;;;0.93;0.80;;;;;;;;;;1741519;28;20596;-76
2023/12/24 06:39:08;;;;;;;2.35;0.85;;;;;;;;;;1741946;28;20212;-76
2023/12/24 06:40:00;;;;;;;0.80;0.63;;;;;;;;;;1741947;28;20541;-77
2023/12/24 06:40:51;;;;;;;2.30;0.77;;;;;;;;;;1741871;28;20199;-76
2023/12/24 06:41:45;;;;;;;1.00;0.80;;;;;;;;;;1741857;28;20615;-77
2023/12/24 06:42:36;;;;;;;1.02;0.65;;;;;;;;;;1742009;28;20576;-76
2023/12/24 06:43:27;;;;;;;1.10;0.68;;;;;;;;;;1742023;28;20199;-76
2023/12/24 06:44:19;;;;;;;1.30;0.90;;;;;;;;;;1741938;28;20203;-76
2023/12/24 06:45:10;;;;;;;1.15;0.90;;;;;;;;;;1741855;28;20215;-76
2023/12/24 06:46:01;;;;;;;0.80;0.70;;;;;;;;;;1741866;28;20207;-76
2023/12/24 06:46:55;;;;;;;1.02;0.60;;;;;;;;;;1741969;28;20234;-76
2023/12/24 06:47:46;;;;;;;2.10;0.80;;;;;;;;;;1741636;28;20578;-76
2023/12/24 06:48:37;;;;;;;2.17;0.70;;;;;;;;;;1741952;28;20261;-76
2023/12/24 06:49:29;;;;;;;0.90;0.70;;;;;;;;;;1741903;28;20207;-77
2023/12/24 06:50:22;;;;;;;0.80;0.70;;;;;;;;;;1742909;28;20691;-76
2023/12/24 06:51:13;;;;;;;1.00;0.80;;;;;;;;;;1741612;28;20713;-76
2023/12/24 06:52:05;;;;;;;1.10;0.80;;;;;;;;;;1744644;28;20742;-76
2023/12/24 06:52:56;;;;;;;1.30;0.80;;;;;;;;;;1744324;28;20580;-76
2023/12/24 06:53:47;;;;;;;1.42;0.70;;;;;;;;;;1741998;28;20195;-77
2023/12/24 06:54:39;;;;;;;1.00;0.88;;;;;;;;;;1741975;28;21242;-76
2023/12/24 06:55:30;;;;;;;2.33;0.88;;;;;;;;;;1741923;28;20214;-77
2023/12/24 06:56:21;;;;;;;0.95;0.73;;;;;;;;;;1741932;28;20599;-77
2023/12/24 06:57:14;;;;;;;0.80;0.75;;;;;;;;;;1742109;28;20291;-77
2023/12/24 06:58:06;;;;;;;1.40;1.08;;;;;;;;;;1741880;28;20207;-77
2023/12/24 06:58:57;;;;;;;1.30;0.65;;;;;;;;;;1735238;28;20205;-77
2023/12/24 06:59:49;;;;;;;0.93;0.70;;;;;;;;;;1735316;28;20261;-77
2023/12/24 07:00:40;;;;;;;1.20;0.90;;;;;;;;;;1740499;28;20732;-77
2023/12/24 07:01:32;;;;;;;0.80;0.70;;;;;;;;;;1741894;28;20203;-77
2023/12/24 07:02:25;;;;;;;1.05;0.80;;;;;;;;;;1742047;28;20206;-77
2023/12/24 07:03:17;;;;;;;1.02;0.77;;;;;;;;;;1741915;28;20576;-77
2023/12/24 07:04:08;;;;;;;1.58;0.95;;;;;;;;;;1742194;28;20199;-77
2023/12/24 07:05:01;;;;;;;0.90;0.80;;;;;;;;;;1741848;28;20192;-77
2023/12/24 07:05:52;;;;;;;1.77;0.90;;;;;;;;;;1741723;28;20210;-77
2023/12/24 07:06:44;;;;;;;1.10;0.75;;;;;;;;;;1747756;28;20190;-76
2023/12/24 07:07:35;;;;;;;1.20;0.80;;;;;;;;;;1748828;28;20565;-76
2023/12/24 07:08:26;;;;;;;1.55;0.82;;;;;;;;;;1741774;28;20276;-76
2023/12/24 07:09:18;;;;;;;0.90;0.70;;;;;;;;;;1742007;28;20199;-77
2023/12/24 07:10:09;;;;;;;0.80;0.70;;;;;;;;;;1741841;28;20231;-77
2023/12/24 07:11:00;;;;;;;2.03;0.90;;;;;;;;;;1741721;28;20211;-77
2023/12/24 07:11:51;;;;;;;1.35;0.80;;;;;;;;;;1741671;28;20286;-77
2023/12/24 07:12:43;;;;;;;1.38;0.77;;;;;;;;;;1742051;28;20195;-77
2023/12/24 07:13:35;;;;;;;2.25;0.95;;;;;;;;;;1741782;28;20203;-76
2023/12/24 07:14:27;;;;;;;1.27;0.80;;;;;;;;;;1741843;28;20207;-77
2023/12/24 07:15:18;;;;;;;1.20;0.90;;;;;;;;;;1742000;28;20203;-77
2023/12/24 07:16:10;;;;;;;1.48;0.88;;;;;;;;;;1741862;28;20199;-76
2023/12/24 07:17:01;;;;;;;1.15;0.80;;;;;;;;;;1741651;28;20214;-76
2023/12/24 07:17:54;;;;;;;0.80;0.63;;;;;;;;;;1741448;28;20206;-76
2023/12/24 07:18:46;;;;;;;0.88;0.70;;;;;;;;;;1741745;28;20199;-77
2023/12/24 07:19:37;;;;;;;0.80;0.75;;;;;;;;;;1741700;28;20567;-76
2023/12/24 07:20:29;;;;;;;1.25;0.90;;;;;;;;;;1741668;28;20336;-77
2023/12/24 07:21:20;;;;;;;3.30;1.38;;;;;;;;;;1741489;28;20590;-76
2023/12/24 07:22:15;;;;;;;1.77;0.80;;;;;;;;;;1741916;28;20233;-77
2023/12/24 07:23:07;;;;;;;0.90;0.70;;;;;;;;;;1741920;28;20305;-76
2023/12/24 07:23:58;;;;;;;1.17;0.80;;;;;;;;;;1741677;28;20253;-76
2023/12/24 07:24:50;;;;;;;4.35;0.80;;;;;;;;;;1740699;28;20659;-76
2023/12/24 07:25:41;;;;;;;1.83;0.80;;;;;;;;;;1741595;28;20203;-76
2023/12/24 07:26:32;;;;;;;1.25;0.65;;;;;;;;;;1741846;28;20579;-77
2023/12/24 07:27:24;;;;;;;0.70;0.60;;;;;;;;;;1741831;28;20198;-76
2023/12/24 07:28:15;;;;;;;1.05;0.75;;;;;;;;;;1748140;28;20340;-77
2023/12/24 07:29:06;;;;;;;0.98;0.60;;;;;;;;;;1744466;28;20264;-76
2023/12/24 07:29:58;;;;;;;1.45;0.65;;;;;;;;;;1741632;28;20203;-77
2023/12/24 07:30:50;;;;;;;0.80;0.60;;;;;;;;;;1741635;28;20294;-77
2023/12/24 07:31:41;;;;;;;0.90;0.70;;;;;;;;;;1741490;28;20207;-77
2023/12/24 07:32:33;;;;;;;1.33;0.63;;;;;;;;;;1741761;28;20199;-77
2023/12/24 07:33:25;;;;;;;0.80;0.50;;;;;;;;;;1741610;28;20207;-76
2023/12/24 07:34:18;;;;;;;0.95;0.63;;;;;;;;;;1741777;28;20210;-76
2023/12/24 07:35:10;;;;;;;1.50;0.60;;;;;;;;;;1734966;28;20204;-77
2023/12/24 07:36:01;;;;;;;1.65;0.70;;;;;;;;;;1734711;28;20261;-76
2023/12/24 07:36:53;;;;;;;1.15;0.60;;;;;;;;;;1740255;28;20213;-76
2023/12/24 07:37:44;;;;;;;0.77;0.60;;;;;;;;;;1741529;28;20206;-76
2023/12/24 07:38:35;;;;;;;0.75;0.60;;;;;;;;;;1741623;28;20202;-77
2023/12/24 07:39:27;;;;;;;0.98;0.85;;;;;;;;;;1741741;28;20203;-76
2023/12/24 07:40:19;;;;;;;1.05;0.60;;;;;;;;;;1741507;28;20604;-76
2023/12/24 07:41:10;;;;;;;1.10;0.60;;;;;;;;;;1741746;28;20203;-77
2023/12/24 07:42:02;;;;;;;1.90;0.70;;;;;;;;;;1741245;28;20214;-76
2023/12/24 07:42:53;;;;;;;0.98;0.65;;;;;;;;;;1741808;28;20211;-77
2023/12/24 07:43:44;;;;;;;1.10;0.60;;;;;;;;;;1741562;28;20492;-76
2023/12/24 07:44:36;;;;;;;0.80;0.60;;;;;;;;;;1746874;28;20222;-76
2023/12/24 07:45:27;;;;;;;1.10;0.70;;;;;;;;;;1748515;28;20206;-77
2023/12/24 07:46:18;;;;;;;1.00;0.70;;;;;;;;;;1744225;28;20245;-76
2023/12/24 07:47:11;;;;;;;0.80;0.63;;;;;;;;;;1741866;28;20664;-76
2023/12/24 07:48:02;;;;;;;1.10;0.60;;;;;;;;;;1741600;28;20211;-77
2023/12/24 07:48:54;;;;;;;1.13;0.70;;;;;;;;;;1741503;28;20199;-76
2023/12/24 07:49:46;;;;;;;0.80;0.75;;;;;;;;;;1741603;28;20203;-76
2023/12/24 07:50:37;;;;;;;1.08;0.55;;;;;;;;;;1741392;28;20252;-76
2023/12/24 07:51:29;;;;;;;0.88;0.50;;;;;;;;;;1741252;28;20205;-76
2023/12/24 07:52:21;;;;;;;0.80;0.60;;;;;;;;;;1741447;28;20308;-77
2023/12/24 07:53:12;;;;;;;1.23;0.60;;;;;;;;;;1741735;28;20214;-76
2023/12/24 07:54:03;;;;;;;1.75;0.50;;;;;;;;;;1741541;28;20203;-77
2023/12/24 07:54:55;;;;;;;0.80;0.57;;;;;;;;;;1741513;28;20392;-77
2023/12/24 07:55:46;;;;;;;1.50;0.60;;;;;;;;;;1741477;28;20664;-77
2023/12/24 07:56:37;;;;;;;0.90;0.70;;;;;;;;;;1741429;28;20206;-76
2023/12/24 07:57:29;;;;;;;1.05;0.60;;;;;;;;;;1741432;28;20713;-77
2023/12/24 07:58:20;;;;;;;0.80;0.60;;;;;;;;;;1741083;28;20207;-76
2023/12/24 07:59:13;;;;;;;1.08;0.60;;;;;;;;;;1741465;28;20562;-77
2023/12/24 08:00:06;;;;;;;1.25;0.60;;;;;;;;;;1741330;28;20203;-76
2023/12/24 08:00:58;;;;;;;1.23;0.70;;;;;;;;;;1742530;28;20191;-77
2023/12/24 08:01:49;;;;;;;0.90;0.60;;;;;;;;;;1737893;28;20586;-76
2023/12/24 08:02:41;;;;;;;1.20;0.65;;;;;;;;;;1741417;28;20199;-77
2023/12/24 08:03:33;;;;;;;0.80;0.60;;;;;;;;;;1741304;28;20733;-76
2023/12/24 08:04:25;;;;;;;1.55;0.55;;;;;;;;;;1741347;28;20204;-78
2023/12/24 08:05:16;;;;;;;0.70;0.52;;;;;;;;;;1741399;28;20237;-76
2023/12/24 08:06:08;;;;;;;0.80;0.60;;;;;;;;;;1741380;28;20223;-76
2023/12/24 08:06:59;;;;;;;0.70;0.50;;;;;;;;;;1741287;28;20210;-76
2023/12/24 08:07:50;;;;;;;0.75;0.55;;;;;;;;;;1740989;28;20245;-76
2023/12/24 08:08:42;;;;;;;1.00;0.60;;;;;;;;;;1741287;28;20644;-76
2023/12/24 08:09:33;;;;;;;1.15;0.50;;;;;;;;;;1741388;28;20207;-77
2023/12/24 08:10:26;;;;;;;1.20;0.60;;;;;;;;;;1741879;28;20250;-76
2023/12/24 08:11:17;;;;;;;1.42;0.60;;;;;;;;;;1748176;28;20298;-82
2023/12/24 08:12:08;;;;;;;1.40;1.08;;;;;;;;;;1742676;28;20566;-81
2023/12/24 08:13:00;;;;;;;1.10;0.90;;;;;;;;;;1742355;28;20207;-81
2023/12/24 08:13:51;;;;;;;6.05;1.08;;;;;;;;;;1742190;28;20207;-80
2023/12/24 08:14:42;;;;;;;0.80;0.70;;;;;;;;;;1742215;28;20207;-81
2023/12/24 08:15:34;;;;;;;0.80;0.70;;;;;;;;;;1742151;28;20195;-79
2023/12/24 08:16:25;;;;;;;2.15;0.60;;;;;;;;;;1742181;28;20574;-78
2023/12/24 08:17:17;;;;;;;0.95;0.70;;;;;;;;;;1742302;28;20198;-81
2023/12/24 08:18:09;;;;;;;0.90;0.70;;;;;;;;;;1742217;28;20268;-81
2023/12/24 08:19:00;;;;;;;2.15;1.02;;;;;;;;;;1735405;28;20588;-81
2023/12/24 08:19:54;;;;;;;2.58;0.60;;;;;;;;;;1735319;28;20258;-86
2023/12/24 08:20:47;;;;;;;0.90;0.60;;;;;;;;;;1742085;28;20698;-85
2023/12/24 08:21:38;;;;;;;1.30;0.60;;;;;;;;;;1742689;28;20216;-85
2023/12/24 08:22:29;;;;;;;0.70;0.50;;;;;;;;;;1743030;28;20588;-85
2023/12/24 08:23:21;;;;;;;1.23;0.60;;;;;;;;;;1742863;28;20227;-85
2023/12/24 08:24:12;;;;;;;0.70;0.50;;;;;;;;;;1742555;28;20260;-85
2023/12/24 08:25:03;;;;;;;0.80;0.50;;;;;;;;;;1747883;28;20194;-85
2023/12/24 08:25:55;;;;;;;0.90;0.50;;;;;;;;;;1748448;28;20277;-85
2023/12/24 08:26:46;;;;;;;1.10;0.60;;;;;;;;;;1742845;28;20203;-84
2023/12/24 08:27:37;;;;;;;0.95;0.70;;;;;;;;;;1743303;28;20257;-85
2023/12/24 08:28:29;;;;;;;0.75;0.50;;;;;;;;;;1742161;28;20214;-84
2023/12/24 08:29:21;;;;;;;0.70;0.40;;;;;;;;;;1743068;28;20676;-84
2023/12/24 08:30:13;;;;;;;1.23;0.40;;;;;;;;;;1742675;28;20231;-84
2023/12/24 08:31:04;;;;;;;0.70;0.50;;;;;;;;;;1743396;28;20682;-84
2023/12/24 08:31:56;;;;;;;0.80;0.40;;;;;;;;;;1742517;28;20226;-84
2023/12/24 08:32:48;;;;;;;0.70;0.50;;;;;;;;;;1742490;28;20262;-83
2023/12/24 08:33:40;;;;;;;0.90;0.50;;;;;;;;;;1743014;28;20203;-84
2023/12/24 08:34:31;;;;;;;0.80;0.57;;;;;;;;;;1743083;28;20214;-84
2023/12/24 08:35:24;;;;;;;0.70;0.50;;;;;;;;;;1743108;28;20202;-84
2023/12/24 08:36:15;;;;;;;0.70;0.50;;;;;;;;;;1742546;28;20241;-84
2023/12/24 08:37:07;;;;;;;0.80;0.50;;;;;;;;;;1743199;28;20218;-84
2023/12/24 08:37:58;;;;;;;0.93;0.50;;;;;;;;;;1742646;28;20215;-83
2023/12/24 08:38:49;;;;;;;1.05;0.50;;;;;;;;;;1745212;28;20191;-82
2023/12/24 08:39:41;;;;;;;0.73;0.60;;;;;;;;;;1743712;28;20203;-81
2023/12/24 08:40:33;;;;;;;1.27;0.60;;;;;;;;;;1742263;28;20219;-82
2023/12/24 08:41:24;;;;;;;0.70;0.60;;;;;;;;;;1742452;28;20236;-81
2023/12/24 08:42:16;;;;;;;0.70;0.50;;;;;;;;;;1742712;28;20195;-82
2023/12/24 08:43:07;;;;;;;1.13;0.60;;;;;;;;;;1742588;28;20659;-81
2023/12/24 08:43:58;;;;;;;0.70;0.50;;;;;;;;;;1742569;28;20187;-81
2023/12/24 08:44:50;;;;;;;1.15;0.60;;;;;;;;;;1742703;28;20252;-81
2023/12/24 08:45:41;;;;;;;0.93;0.60;;;;;;;;;;1742721;28;20209;-82
2023/12/24 08:46:32;;;;;;;2.20;0.60;;;;;;;;;;1742722;28;20252;-82
2023/12/24 08:47:24;;;;;;;0.80;0.60;;;;;;;;;;1742358;28;20230;-82
2023/12/24 08:48:15;;;;;;;0.80;0.50;;;;;;;;;;1742505;28;20212;-81
2023/12/24 08:49:07;;;;;;;0.80;0.50;;;;;;;;;;1742551;28;20209;-81
2023/12/24 08:50:00;;;;;;;1.83;0.70;;;;;;;;;;1742742;28;20222;-82
2023/12/24 08:50:52;;;;;;;0.80;0.52;;;;;;;;;;1742718;28;20199;-79
2023/12/24 08:51:43;;;;;;;0.70;0.50;;;;;;;;;;1741955;28;20687;-81
2023/12/24 08:52:35;;;;;;;0.70;0.60;;;;;;;;;;1742192;28;20203;-81
2023/12/24 08:53:27;;;;;;;0.80;0.50;;;;;;;;;;1742297;28;20230;-81
2023/12/24 08:54:18;;;;;;;0.70;0.40;;;;;;;;;;1742296;28;20654;-80
2023/12/24 08:55:10;;;;;;;0.77;0.50;;;;;;;;;;1742345;28;20210;-81
2023/12/24 08:56:01;;;;;;;1.13;0.50;;;;;;;;;;1742476;28;20591;-80
2023/12/24 08:56:53;;;;;;;0.70;0.50;;;;;;;;;;1742152;28;20590;-80
2023/12/24 08:57:45;;;;;;;0.82;0.50;;;;;;;;;;1742197;28;20489;-81
2023/12/24 08:58:36;;;;;;;1.50;0.65;;;;;;;;;;1742386;28;20272;-81
2023/12/24 08:59:27;;;;;;;1.35;0.70;;;;;;;;;;1742508;28;20206;-81
2023/12/24 09:00:20;;;;;;;0.90;0.60;;;;;;;;;;1742410;28;20292;-81
2023/12/24 09:01:12;;;;;;;0.88;0.60;;;;;;;;;;1742487;28;20199;-82
2023/12/24 09:02:03;;;;;;;0.80;0.50;;;;;;;;;;1742002;28;20246;-82
2023/12/24 09:02:55;;;;;;;1.58;0.47;;;;;;;;;;1741996;28;20202;-81
2023/12/24 09:03:46;;;;;;;0.90;0.50;;;;;;;;;;1742299;28;20207;-82
2023/12/24 09:04:37;;;;;;;1.35;0.57;;;;;;;;;;1743020;28;20205;-81
2023/12/24 09:05:29;;;;;;;0.70;0.50;;;;;;;;;;1735448;28;20196;-81
2023/12/24 09:06:22;;;;;;;0.80;0.60;;;;;;;;;;1740412;28;20214;-80
2023/12/24 09:07:13;;;;;;;0.80;0.60;;;;;;;;;;1735402;28;20200;-78
2023/12/24 09:08:05;;;;;;;1.20;0.77;;;;;;;;;;1737589;28;20203;-77
2023/12/24 09:08:56;;;;;;;1.40;0.70;;;;;;;;;;1741472;28;20663;-77
2023/12/24 09:09:48;;;;;;;1.85;1.00;;;;;;;;;;1741908;28;20787;-78
2023/12/24 09:10:41;;;;;;;1.67;0.95;;;;;;;;;;1743359;28;20226;-79
2023/12/24 09:11:32;;;;;;;1.83;1.20;;;;;;;;;;1741361;28;20222;-79
2023/12/24 09:12:24;;;;;;;2.08;1.25;;;;;;;;;;1742684;28;20679;-80
2023/12/24 09:13:15;;;;;;;1.00;0.80;;;;;;;;;;1745148;28;20199;-80
2023/12/24 09:14:07;;;;;;;1.00;0.80;;;;;;;;;;1747338;28;20199;-78
2023/12/24 09:14:58;;;;;;;0.90;0.75;;;;;;;;;;1749343;28;20210;-79
2023/12/24 09:15:50;;;;;;;1.00;0.70;;;;;;;;;;1744380;28;20203;-80
2023/12/24 09:16:41;;;;;;;0.77;0.63;;;;;;;;;;1741822;28;20214;-81
2023/12/24 09:17:33;;;;;;;1.10;0.70;;;;;;;;;;1742143;28;20199;-82
2023/12/24 09:18:25;;;;;;;1.52;0.90;;;;;;;;;;1741726;28;20201;-81
2023/12/24 09:19:16;;;;;;;1.75;0.88;;;;;;;;;;1742149;28;20214;-80
2023/12/24 09:20:07;;;;;;;1.45;0.93;;;;;;;;;;1741509;28;20203;-81
2023/12/24 09:20:59;;;;;;;0.93;0.80;;;;;;;;;;1742158;28;20230;-80
2023/12/24 09:21:52;;;;;;;1.02;0.70;;;;;;;;;;1741275;28;20198;-80
2023/12/24 09:22:44;;;;;;;1.30;0.95;;;;;;;;;;1741701;28;20194;-80
2023/12/24 09:23:36;;;;;;;0.90;0.60;;;;;;;;;;1741856;28;20203;-82
2023/12/24 09:24:27;;;;;;;1.15;0.85;;;;;;;;;;1739629;28;20207;-81
2023/12/24 09:25:18;;;;;;;0.80;0.60;;;;;;;;;;1741380;28;20198;-81
2023/12/24 09:26:10;;;;;;;0.80;0.60;;;;;;;;;;1741931;28;20198;-81
2023/12/24 09:27:02;;;;;;;0.70;0.60;;;;;;;;;;1742173;28;20226;-81
2023/12/24 09:27:54;;;;;;;0.80;0.60;;;;;;;;;;1741992;28;20195;-80
2023/12/24 09:28:45;;;;;;;0.90;0.70;;;;;;;;;;1742226;28;20607;-81
2023/12/24 09:29:37;;;;;;;2.40;2.20;;;;;;;;;;1748156;28;20205;-83
2023/12/24 09:30:28;;;;;;;1.55;0.95;;;;;;;;;;1743512;28;20223;-81
2023/12/24 09:31:19;;;;;;;1.10;0.65;;;;;;;;;;1743111;28;20203;-83
2023/12/24 09:32:11;;;;;;;0.80;0.60;;;;;;;;;;1743670;28;20219;-84
2023/12/24 09:33:02;;;;;;;1.30;0.68;;;;;;;;;;1744152;28;20671;-83
2023/12/24 09:33:54;;;;;;;2.88;0.80;;;;;;;;;;1743557;28;20596;-82
2023/12/24 09:34:46;;;;;;;0.80;0.50;;;;;;;;;;1743010;28;20206;-83
2023/12/24 09:35:37;;;;;;;0.80;0.60;;;;;;;;;;1743086;28;20203;-83
2023/12/24 09:36:28;;;;;;;0.70;0.60;;;;;;;;;;1743111;28;20211;-83
2023/12/24 09:37:21;;;;;;;0.70;0.50;;;;;;;;;;1747710;28;20248;-83
2023/12/24 09:38:13;;;;;;;1.13;0.50;;;;;;;;;;1746511;28;20203;-83
2023/12/24 09:39:05;;;;;;;1.02;0.68;;;;;;;;;;1743536;28;20691;-85
2023/12/24 09:39:57;;;;;;;1.00;0.60;;;;;;;;;;1743147;28;20211;-81
2023/12/24 09:40:48;;;;;;;1.38;0.70;;;;;;;;;;1743783;28;20218;-81
2023/12/24 09:41:39;;;;;;;1.75;0.73;;;;;;;;;;1744493;28;20199;-81
2023/12/24 09:42:31;;;;;;;0.80;0.60;;;;;;;;;;1742805;28;20203;-81
2023/12/24 09:43:22;;;;;;;1.00;0.50;;;;;;;;;;1742591;28;20843;-81
2023/12/24 09:44:14;;;;;;;0.80;0.68;;;;;;;;;;1743104;28;20658;-80
2023/12/24 09:45:06;;;;;;;0.82;0.57;;;;;;;;;;1742780;28;20579;-81
2023/12/24 09:45:57;;;;;;;0.85;0.52;;;;;;;;;;1741321;28;20257;-81
2023/12/24 09:46:49;;;;;;;1.45;0.60;;;;;;;;;;1741650;28;20272;-81
2023/12/24 09:47:40;;;;;;;1.02;0.60;;;;;;;;;;1741899;28;20203;-80
2023/12/24 09:48:32;;;;;;;0.80;0.60;;;;;;;;;;1742953;28;20605;-82
2023/12/24 09:49:24;;;;;;;3.08;0.80;;;;;;;;;;1741534;28;20195;-81
2023/12/24 09:50:15;;;;;;;0.90;0.60;;;;;;;;;;1742293;28;20218;-81
2023/12/24 09:51:08;;;;;;;1.00;0.68;;;;;;;;;;1744304;28;20205;-80
2023/12/24 09:52:00;;;;;;;2.25;0.60;;;;;;;;;;1744005;28;20215;-76
2023/12/24 09:52:53;;;;;;;0.80;0.52;;;;;;;;;;1742178;28;20199;-75
2023/12/24 09:53:46;;;;;;;1.65;0.60;;;;;;;;;;1742245;28;20347;-76
2023/12/24 09:54:38;;;;;;;1.00;0.60;;;;;;;;;;1742268;28;20195;-75
2023/12/24 09:55:30;;;;;;;3.30;1.05;;;;;;;;;;1742153;28;20203;-75
2023/12/24 09:56:21;;;;;;;0.70;0.50;;;;;;;;;;1736399;28;20271;-75
2023/12/24 09:57:13;;;;;;;1.00;0.70;;;;;;;;;;1741312;28;20233;-75
2023/12/24 09:58:04;;;;;;;0.80;0.60;;;;;;;;;;1736076;28;20207;-75
2023/12/24 09:58:55;;;;;;;1.02;0.60;;;;;;;;;;1741999;28;20195;-74
2023/12/24 09:59:48;;;;;;;0.80;0.60;;;;;;;;;;1742216;28;20203;-75
2023/12/24 10:00:39;;;;;;;0.90;0.60;;;;;;;;;;1741846;28;20227;-75
2023/12/24 10:01:39;;;;;;;1.00;0.70;;;;;;;;;;1742058;28;20214;-74
2023/12/24 10:02:30;;;;;;;0.90;0.60;;;;;;;;;;1742267;28;20854;-74
2023/12/24 10:03:22;;;;;;;0.80;0.60;;;;;;;;;;1741999;28;20252;-75
2023/12/24 10:04:14;;;;;;;1.10;0.77;;;;;;;;;;1742160;28;20691;-75
2023/12/24 10:05:06;;;;;;;1.25;0.82;;;;;;;;;;1742193;28;20205;-76
2023/12/24 10:06:01;;;;;;;1.67;0.65;;;;;;;;;;1742119;28;20199;-75
2023/12/24 10:06:53;;;;;;;1.02;0.70;;;;;;;;;;1742033;28;20203;-76
2023/12/24 10:07:45;;;;;;;1.00;0.60;;;;;;;;;;1741891;28;20195;-76
2023/12/24 10:08:38;;;;;;;0.88;0.65;;;;;;;;;;1742847;28;20268;-75
2023/12/24 10:09:43;;;;;;;1.75;0.88;;;;;;;;;;1735232;28;20208;-76
2023/12/24 10:10:35;;;;;;;1.73;0.63;;;;;;;;;;1746690;28;20226;-74
2023/12/24 10:11:33;;;;;;;1.90;0.70;;;;;;;;;;1742057;28;20333;-75
2023/12/24 10:12:25;;;;;;;2.45;2.08;;;;;;;;;;1735249;28;20210;-75
2023/12/24 10:13:19;;;;;;;1.30;0.63;;;;;;;;;;1741947;28;20199;-76
2023/12/24 10:14:12;;;;;;;0.70;0.50;;;;;;;;;;1742144;28;20203;-75
2023/12/24 10:15:04;;;;;;;0.90;0.50;;;;;;;;;;1742045;28;20216;-75
2023/12/24 10:16:04;;;;;;;0.80;0.60;;;;;;;;;;1742052;28;20199;-75
2023/12/24 10:16:55;;;;;;;0.77;0.50;;;;;;;;;;1741772;28;20211;-76
2023/12/24 10:17:48;;;;;;;1.00;0.70;;;;;;;;;;1741916;28;20253;-76
2023/12/24 10:18:47;;;;;;;0.80;0.60;;;;;;;;;;1743044;28;20219;-78
2023/12/24 10:19:38;;;;;;;0.70;0.50;;;;;;;;;;1743459;28;20580;-78
2023/12/24 10:20:30;;;;;;;0.70;0.60;;;;;;;;;;1742846;28;20223;-78
2023/12/24 10:21:22;;;;;;;0.80;0.60;;;;;;;;;;1742656;28;20214;-78
2023/12/24 10:22:13;;;;;;;0.82;0.60;;;;;;;;;;1742724;28;20215;-77
2023/12/24 10:23:07;;;;;;;0.75;0.50;;;;;;;;;;1742871;28;20235;-78
2023/12/24 10:24:04;;;;;;;0.80;0.70;;;;;;;;;;1742643;28;20206;-78
2023/12/24 10:25:00;;;;;;;1.17;0.70;;;;;;;;;;1746085;28;20191;-77
2023/12/24 10:26:01;;;;;;;0.70;0.50;;;;;;;;;;1748993;28;20203;-78
2023/12/24 10:26:57;;;;;;;1.88;0.60;;;;;;;;;;1742779;28;20202;-78
2023/12/24 10:27:49;;;;;;;1.20;0.60;;;;;;;;;;1742395;28;20813;-78
2023/12/24 10:28:48;;;;;;;0.70;0.50;;;;;;;;;;1742322;28;20210;-78
2023/12/24 10:29:39;;;;;;;1.17;0.70;;;;;;;;;;1742620;28;20247;-77
2023/12/24 10:30:30;;;;;;;0.80;0.60;;;;;;;;;;1742568;28;20215;-78
2023/12/24 10:31:23;;;;;;;0.80;0.50;;;;;;;;;;1742643;28;20191;-77
2023/12/24 10:32:14;;;;;;;0.80;0.60;;;;;;;;;;1742290;28;20258;-78
2023/12/24 10:33:11;;;;;;;1.65;0.82;;;;;;;;;;1743411;28;20253;-82
2023/12/24 10:34:02;;;;;;;1.23;0.63;;;;;;;;;;1744940;28;20261;-81
2023/12/24 10:34:56;;;;;;;0.70;0.60;;;;;;;;;;1743459;28;20225;-78
2023/12/24 10:35:49;;;;;;;0.80;0.60;;;;;;;;;;1743071;28;20207;-78
2023/12/24 10:36:40;;;;;;;0.70;0.50;;;;;;;;;;1743208;28;20210;-79
2023/12/24 10:37:33;;;;;;;0.65;0.40;;;;;;;;;;1742934;28;20578;-78
2023/12/24 10:38:26;;;;;;;0.70;0.50;;;;;;;;;;1742142;28;20214;-78
2023/12/24 10:39:24;;;;;;;0.70;0.50;;;;;;;;;;1742661;28;20195;-80
2023/12/24 10:40:16;;;;;;;0.80;0.50;;;;;;;;;;1742756;28;20226;-78
2023/12/24 10:41:07;;;;;;;0.95;0.65;;;;;;;;;;1742915;28;20195;-78
2023/12/24 10:41:58;;;;;;;0.80;0.60;;;;;;;;;;1745741;28;20188;-78
2023/12/24 10:42:50;;;;;;;1.65;0.70;;;;;;;;;;1741874;28;20197;-78
2023/12/24 10:43:41;;;;;;;0.80;0.55;;;;;;;;;;1742486;28;20576;-78
2023/12/24 10:44:33;;;;;;;0.70;0.52;;;;;;;;;;1742548;28;20253;-78
2023/12/24 10:45:25;;;;;;;0.70;0.50;;;;;;;;;;1745810;28;20205;-78
2023/12/24 10:46:16;;;;;;;0.70;0.60;;;;;;;;;;1749671;28;20207;-78
2023/12/24 10:47:08;;;;;;;2.08;0.70;;;;;;;;;;1746477;28;20203;-78
2023/12/24 10:48:00;;;;;;;0.70;0.50;;;;;;;;;;1741912;28;20321;-77
2023/12/24 10:48:51;;;;;;;1.92;0.70;;;;;;;;;;1742208;28;20203;-78
2023/12/24 10:49:42;;;;;;;0.93;0.60;;;;;;;;;;1742390;28;20207;-77
2023/12/24 10:50:34;;;;;;;0.70;0.50;;;;;;;;;;1742635;28;20223;-77
2023/12/24 10:51:26;;;;;;;0.70;0.50;;;;;;;;;;1742386;28;20207;-77
2023/12/24 10:52:18;;;;;;;1.02;0.60;;;;;;;;;;1742502;28;20255;-78
2023/12/24 10:53:10;;;;;;;0.75;0.47;;;;;;;;;;1742941;28;20203;-78
2023/12/24 10:54:01;;;;;;;0.70;0.52;;;;;;;;;;1742591;28;20573;-78
2023/12/24 10:54:55;;;;;;;0.75;0.50;;;;;;;;;;1742679;28;20242;-78
2023/12/24 10:55:50;;;;;;;1.48;0.50;;;;;;;;;;1742678;28;20199;-78
2023/12/24 10:56:47;;;;;;;0.70;0.40;;;;;;;;;;1744128;28;20286;-78
2023/12/24 10:57:45;;;;;;;0.70;0.50;;;;;;;;;;1743296;28;20211;-78
2023/12/24 10:58:48;;;;;;;1.05;0.70;;;;;;;;;;1743024;28;20226;-77
2023/12/24 10:59:54;;;;;;;0.90;0.50;;;;;;;;;;1735230;28;20261;-76
2023/12/24 11:00:46;;;;;;;0.70;0.50;;;;;;;;;;1740565;28;20261;-75
2023/12/24 11:01:38;;;;;;;1.00;0.60;;;;;;;;;;1741889;28;20211;-75
2023/12/24 11:02:29;;;;;;;0.80;0.50;;;;;;;;;;1742006;28;20207;-76
2023/12/24 11:03:39;;;;;;;0.70;0.50;;;;;;;;;;1741905;28;20199;-76
2023/12/24 11:04:43;;;;;;;0.75;0.60;;;;;;;;;;1738671;28;20596;-74
2023/12/24 11:05:48;;;;;;;0.80;0.50;;;;;;;;;;1739277;28;20644;-75
2023/12/24 11:06:45;;;;;;;0.73;0.55;;;;;;;;;;1737395;28;20207;-77
2023/12/24 11:07:46;;;;;;;1.50;0.70;;;;;;;;;;1739058;28;20247;-76
2023/12/24 11:08:38;;;;;;;1.00;0.50;;;;;;;;;;1741336;28;20579;-74
2023/12/24 11:09:43;;;;;;;0.70;0.60;;;;;;;;;;1738984;28;20199;-74
2023/12/24 11:10:43;;;;;;;1.85;0.60;;;;;;;;;;1741590;28;20298;-75
2023/12/24 11:11:51;;;;;;;0.90;0.60;;;;;;;;;;1741737;28;20210;-76
2023/12/24 11:12:43;;;;;;;0.90;0.70;;;;;;;;;;1741860;28;20207;-76
2023/12/24 11:13:44;;;;;;;1.65;0.60;;;;;;;;;;1742055;28;20211;-75